sensor_id;sensor_type;location;lat;lon;timestamp;pressure;altitude;pressure_sealevel;temperature
24201;BMP280;2801;50.972;7.856;2022-09-12T00:01:19;97782.78;;;10.33
24201;BMP280;2801;50.972;7.856;2022-09-12T00:03:47;97781.97;;;10.33
24201;BMP280;2801;50.972;7.856;2022-09-12T00:06:30;97782.28;;;10.31
24201;BMP280;2801;50.972;7.856;2022-09-12T00:09:03;97771.25;;;10.33
24201;BMP280;2801;50.972;7.856;2022-09-12T00:11:30;97771.41;;;10.36
24201;BMP280;2801;50.972;7.856;2022-09-12T00:14:01;97768.41;;;10.38
24201;BMP280;2801;50.972;7.856;2022-09-12T00:16:32;97771.72;;;10.43
24201;BMP280;2801;50.972;7.856;2022-09-12T00:19:00;97772.38;;;10.49
24201;BMP280;2801;50.972;7.856;2022-09-12T00:21:27;97769.56;;;10.54
24201;BMP280;2801;50.972;7.856;2022-09-12T00:23:54;97762.78;;;10.56
24201;BMP280;2801;50.972;7.856;2022-09-12T00:26:21;97755.97;;;10.59
24201;BMP280;2801;50.972;7.856;2022-09-12T00:28:48;97767.34;;;10.64
24201;BMP280;2801;50.972;7.856;2022-09-12T00:31:22;97757.06;;;10.66
24201;BMP280;2801;50.972;7.856;2022-09-12T00:33:56;97761.03;;;10.69
24201;BMP280;2801;50.972;7.856;2022-09-12T00:36:24;97759.31;;;10.73
24201;BMP280;2801;50.972;7.856;2022-09-12T00:38:52;97763.56;;;10.74
24201;BMP280;2801;50.972;7.856;2022-09-12T00:41:33;97765.44;;;10.73
24201;BMP280;2801;50.972;7.856;2022-09-12T00:47:04;97755.03;;;10.72
24201;BMP280;2801;50.972;7.856;2022-09-12T00:49:42;97759.00;;;10.74
24201;BMP280;2801;50.972;7.856;2022-09-12T00:55:25;97740.22;;;10.74
24201;BMP280;2801;50.972;7.856;2022-09-12T00:58:05;97743.03;;;10.78
24201;BMP280;2801;50.972;7.856;2022-09-12T01:00:33;97737.69;;;10.78
24201;BMP280;2801;50.972;7.856;2022-09-12T01:03:06;97742.72;;;10.79
24201;BMP280;2801;50.972;7.856;2022-09-12T01:05:39;97733.88;;;10.79
24201;BMP280;2801;50.972;7.856;2022-09-12T01:08:10;97727.75;;;10.78
24201;BMP280;2801;50.972;7.856;2022-09-12T01:10:39;97729.50;;;10.74
24201;BMP280;2801;50.972;7.856;2022-09-12T01:13:09;97727.25;;;10.68
24201;BMP280;2801;50.972;7.856;2022-09-12T01:15:38;97723.63;;;10.64
24201;BMP280;2801;50.972;7.856;2022-09-12T01:18:19;97717.03;;;10.53
24201;BMP280;2801;50.972;7.856;2022-09-12T01:21:07;97720.19;;;10.46
24201;BMP280;2801;50.972;7.856;2022-09-12T01:32:25;97720.00;;;10.09
24201;BMP280;2801;50.972;7.856;2022-09-12T01:38:16;97719.91;;;9.83
24201;BMP280;2801;50.972;7.856;2022-09-12T01:46:52;97718.72;;;9.59
24201;BMP280;2801;50.972;7.856;2022-09-12T01:49:32;97722.66;;;9.53
24201;BMP280;2801;50.972;7.856;2022-09-12T01:52:20;97714.28;;;9.46
24201;BMP280;2801;50.972;7.856;2022-09-12T01:54:58;97707.97;;;9.42
24201;BMP280;2801;50.972;7.856;2022-09-12T01:57:37;97707.94;;;9.33
24201;BMP280;2801;50.972;7.856;2022-09-12T02:00:10;97714.09;;;9.34
24201;BMP280;2801;50.972;7.856;2022-09-12T02:02:58;97707.91;;;9.25
24201;BMP280;2801;50.972;7.856;2022-09-12T02:05:34;97710.41;;;9.21
24201;BMP280;2801;50.972;7.856;2022-09-12T02:08:14;97708.66;;;9.17
24201;BMP280;2801;50.972;7.856;2022-09-12T02:10:51;97708.50;;;9.13
24201;BMP280;2801;50.972;7.856;2022-09-12T02:13:32;97704.53;;;9.11
24201;BMP280;2801;50.972;7.856;2022-09-12T02:16:14;97701.06;;;9.10
24201;BMP280;2801;50.972;7.856;2022-09-12T02:18:51;97704.66;;;9.06
24201;BMP280;2801;50.972;7.856;2022-09-12T02:21:21;97711.56;;;8.98
24201;BMP280;2801;50.972;7.856;2022-09-12T02:23:56;97702.88;;;8.93
24201;BMP280;2801;50.972;7.856;2022-09-12T02:26:31;97708.53;;;8.91
24201;BMP280;2801;50.972;7.856;2022-09-12T02:29:00;97704.28;;;8.90
24201;BMP280;2801;50.972;7.856;2022-09-12T02:31:39;97701.91;;;8.89
24201;BMP280;2801;50.972;7.856;2022-09-12T02:34:16;97708.66;;;8.86
24201;BMP280;2801;50.972;7.856;2022-09-12T02:37:06;97708.75;;;8.81
24201;BMP280;2801;50.972;7.856;2022-09-12T02:39:38;97706.88;;;8.82
24201;BMP280;2801;50.972;7.856;2022-09-12T02:42:11;97699.97;;;8.81
24201;BMP280;2801;50.972;7.856;2022-09-12T02:44:39;97693.03;;;8.80
24201;BMP280;2801;50.972;7.856;2022-09-12T02:47:14;97696.19;;;8.82
24201;BMP280;2801;50.972;7.856;2022-09-12T02:49:45;97690.84;;;8.82
24201;BMP280;2801;50.972;7.856;2022-09-12T02:52:12;97692.91;;;8.85
24201;BMP280;2801;50.972;7.856;2022-09-12T02:54:39;97696.66;;;8.84
24201;BMP280;2801;50.972;7.856;2022-09-12T02:57:20;97699.34;;;8.84
24201;BMP280;2801;50.972;7.856;2022-09-12T02:59:52;97686.78;;;8.84
24201;BMP280;2801;50.972;7.856;2022-09-12T03:02:31;97688.19;;;8.82
24201;BMP280;2801;50.972;7.856;2022-09-12T03:05:17;97687.69;;;8.80
24201;BMP280;2801;50.972;7.856;2022-09-12T03:11:04;97686.72;;;8.76
24201;BMP280;2801;50.972;7.856;2022-09-12T03:14:03;97691.09;;;8.72
24201;BMP280;2801;50.972;7.856;2022-09-12T03:20:00;97685.22;;;8.61
24201;BMP280;2801;50.972;7.856;2022-09-12T03:22:53;97681.56;;;8.57
24201;BMP280;2801;50.972;7.856;2022-09-12T03:25:33;97680.31;;;8.55
24201;BMP280;2801;50.972;7.856;2022-09-12T03:28:14;97682.78;;;8.51
24201;BMP280;2801;50.972;7.856;2022-09-12T03:30:46;97684.69;;;8.51
24201;BMP280;2801;50.972;7.856;2022-09-12T03:33:20;97684.00;;;8.45
24201;BMP280;2801;50.972;7.856;2022-09-12T03:35:48;97689.16;;;8.42
24201;BMP280;2801;50.972;7.856;2022-09-12T03:38:16;97688.59;;;8.31
24201;BMP280;2801;50.972;7.856;2022-09-12T03:40:43;97685.75;;;8.28
24201;BMP280;2801;50.972;7.856;2022-09-12T03:43:10;97698.91;;;8.24
24201;BMP280;2801;50.972;7.856;2022-09-12T03:45:37;97689.34;;;8.23
24201;BMP280;2801;50.972;7.856;2022-09-12T03:48:05;97692.41;;;8.17
24201;BMP280;2801;50.972;7.856;2022-09-12T03:50:32;97690.50;;;8.17
24201;BMP280;2801;50.972;7.856;2022-09-12T03:52:59;97690.03;;;8.15
24201;BMP280;2801;50.972;7.856;2022-09-12T03:55:26;97700.19;;;8.13
24201;BMP280;2801;50.972;7.856;2022-09-12T03:57:54;97693.09;;;8.09
24201;BMP280;2801;50.972;7.856;2022-09-12T04:00:22;97702.50;;;8.06
24201;BMP280;2801;50.972;7.856;2022-09-12T04:02:56;97693.50;;;8.02
24201;BMP280;2801;50.972;7.856;2022-09-12T04:05:24;97689.25;;;8.01
24201;BMP280;2801;50.972;7.856;2022-09-12T04:07:51;97691.34;;;8.04
24201;BMP280;2801;50.972;7.856;2022-09-12T04:10:18;97692.72;;;8.02
24201;BMP280;2801;50.972;7.856;2022-09-12T04:12:45;97685.03;;;8.00
24201;BMP280;2801;50.972;7.856;2022-09-12T04:15:12;97686.88;;;8.00
24201;BMP280;2801;50.972;7.856;2022-09-12T04:17:39;97685.03;;;8.00
24201;BMP280;2801;50.972;7.856;2022-09-12T04:20:06;97687.19;;;7.98
24201;BMP280;2801;50.972;7.856;2022-09-12T04:22:33;97687.41;;;8.02
24201;BMP280;2801;50.972;7.856;2022-09-12T04:25:01;97675.13;;;8.01
24201;BMP280;2801;50.972;7.856;2022-09-12T04:27:28;97679.84;;;8.04
24201;BMP280;2801;50.972;7.856;2022-09-12T04:29:55;97675.31;;;8.04
24201;BMP280;2801;50.972;7.856;2022-09-12T04:32:22;97679.56;;;8.05
24201;BMP280;2801;50.972;7.856;2022-09-12T04:34:49;97673.75;;;8.03
24201;BMP280;2801;50.972;7.856;2022-09-12T04:37:18;97667.41;;;7.99
24201;BMP280;2801;50.972;7.856;2022-09-12T04:39:44;97672.56;;;7.96
24201;BMP280;2801;50.972;7.856;2022-09-12T04:42:11;97681.66;;;7.95
24201;BMP280;2801;50.972;7.856;2022-09-12T04:44:38;97676.13;;;7.91
24201;BMP280;2801;50.972;7.856;2022-09-12T04:47:05;97675.66;;;7.89
24201;BMP280;2801;50.972;7.856;2022-09-12T04:49:32;97677.44;;;7.80
24201;BMP280;2801;50.972;7.856;2022-09-12T04:51:59;97681.19;;;7.79
24201;BMP280;2801;50.972;7.856;2022-09-12T04:54:26;97669.75;;;7.79
24201;BMP280;2801;50.972;7.856;2022-09-12T04:56:52;97683.09;;;7.79
24201;BMP280;2801;50.972;7.856;2022-09-12T04:59:23;97680.72;;;7.77
24201;BMP280;2801;50.972;7.856;2022-09-12T05:01:50;97679.63;;;7.78
24201;BMP280;2801;50.972;7.856;2022-09-12T05:04:17;97675.69;;;7.76
24201;BMP280;2801;50.972;7.856;2022-09-12T05:06:44;97677.25;;;7.77
24201;BMP280;2801;50.972;7.856;2022-09-12T05:09:13;97676.97;;;7.78
24201;BMP280;2801;50.972;7.856;2022-09-12T05:11:43;97675.09;;;7.79
24201;BMP280;2801;50.972;7.856;2022-09-12T05:14:31;97673.41;;;7.83
24201;BMP280;2801;50.972;7.856;2022-09-12T05:16:59;97674.38;;;7.87
24201;BMP280;2801;50.972;7.856;2022-09-12T05:19:28;97674.56;;;7.90
24201;BMP280;2801;50.972;7.856;2022-09-12T05:21:56;97669.41;;;7.94
24201;BMP280;2801;50.972;7.856;2022-09-12T05:24:23;97668.78;;;7.97
24201;BMP280;2801;50.972;7.856;2022-09-12T05:26:50;97672.66;;;8.04
24201;BMP280;2801;50.972;7.856;2022-09-12T05:29:17;97671.06;;;8.03
24201;BMP280;2801;50.972;7.856;2022-09-12T05:31:44;97675.88;;;8.15
24201;BMP280;2801;50.972;7.856;2022-09-12T05:34:11;97670.94;;;8.22
24201;BMP280;2801;50.972;7.856;2022-09-12T05:36:38;97667.84;;;8.28
24201;BMP280;2801;50.972;7.856;2022-09-12T05:39:05;97667.97;;;8.45
24201;BMP280;2801;50.972;7.856;2022-09-12T05:41:33;97678.59;;;8.59
24201;BMP280;2801;50.972;7.856;2022-09-12T05:44:04;97673.47;;;8.71
24201;BMP280;2801;50.972;7.856;2022-09-12T05:46:42;97679.06;;;8.83
24201;BMP280;2801;50.972;7.856;2022-09-12T05:49:12;97680.06;;;8.95
24201;BMP280;2801;50.972;7.856;2022-09-12T05:51:43;97685.03;;;9.10
24201;BMP280;2801;50.972;7.856;2022-09-12T05:54:14;97668.25;;;9.27
24201;BMP280;2801;50.972;7.856;2022-09-12T05:56:43;97670.78;;;9.71
24201;BMP280;2801;50.972;7.856;2022-09-12T05:59:17;97668.63;;;10.32
24201;BMP280;2801;50.972;7.856;2022-09-12T06:01:45;97670.00;;;10.89
24201;BMP280;2801;50.972;7.856;2022-09-12T06:04:13;97662.34;;;11.46
24201;BMP280;2801;50.972;7.856;2022-09-12T06:06:43;97657.16;;;11.99
24201;BMP280;2801;50.972;7.856;2022-09-12T06:09:15;97658.66;;;12.50
24201;BMP280;2801;50.972;7.856;2022-09-12T06:11:44;97651.06;;;12.96
24201;BMP280;2801;50.972;7.856;2022-09-12T06:14:14;97645.44;;;13.46
24201;BMP280;2801;50.972;7.856;2022-09-12T06:16:41;97638.66;;;14.00
24201;BMP280;2801;50.972;7.856;2022-09-12T06:19:18;97642.75;;;14.61
24201;BMP280;2801;50.972;7.856;2022-09-12T06:21:46;97634.03;;;15.11
24201;BMP280;2801;50.972;7.856;2022-09-12T06:24:18;97629.66;;;15.68
24201;BMP280;2801;50.972;7.856;2022-09-12T06:26:48;97625.84;;;16.23
24201;BMP280;2801;50.972;7.856;2022-09-12T06:29:15;97629.44;;;16.65
24201;BMP280;2801;50.972;7.856;2022-09-12T06:31:43;97627.19;;;17.12
24201;BMP280;2801;50.972;7.856;2022-09-12T06:34:13;97623.78;;;17.60
24201;BMP280;2801;50.972;7.856;2022-09-12T06:36:44;97613.63;;;18.09
24201;BMP280;2801;50.972;7.856;2022-09-12T06:39:19;97608.31;;;18.49
24201;BMP280;2801;50.972;7.856;2022-09-12T06:41:48;97604.34;;;18.73
24201;BMP280;2801;50.972;7.856;2022-09-12T06:44:18;97607.88;;;18.77
24201;BMP280;2801;50.972;7.856;2022-09-12T06:46:46;97615.00;;;18.92
24201;BMP280;2801;50.972;7.856;2022-09-12T06:49:13;97607.13;;;19.20
24201;BMP280;2801;50.972;7.856;2022-09-12T06:51:40;97597.00;;;19.60
24201;BMP280;2801;50.972;7.856;2022-09-12T06:54:14;97592.75;;;20.27
24201;BMP280;2801;50.972;7.856;2022-09-12T06:56:43;97587.84;;;20.68
24201;BMP280;2801;50.972;7.856;2022-09-12T06:59:10;97587.91;;;20.92
24201;BMP280;2801;50.972;7.856;2022-09-12T07:01:37;97583.66;;;21.26
24201;BMP280;2801;50.972;7.856;2022-09-12T07:04:05;97589.13;;;21.72
24201;BMP280;2801;50.972;7.856;2022-09-12T07:06:39;97582.84;;;21.96
24201;BMP280;2801;50.972;7.856;2022-09-12T07:09:11;97591.72;;;22.25
24201;BMP280;2801;50.972;7.856;2022-09-12T07:11:40;97583.44;;;22.42
24201;BMP280;2801;50.972;7.856;2022-09-12T07:14:11;97576.78;;;22.57
24201;BMP280;2801;50.972;7.856;2022-09-12T07:16:39;97575.19;;;22.63
24201;BMP280;2801;50.972;7.856;2022-09-12T07:19:07;97575.94;;;22.64
24201;BMP280;2801;50.972;7.856;2022-09-12T07:21:34;97580.72;;;22.49
24201;BMP280;2801;50.972;7.856;2022-09-12T07:24:06;97578.50;;;22.13
24201;BMP280;2801;50.972;7.856;2022-09-12T07:26:34;97580.91;;;21.97
24201;BMP280;2801;50.972;7.856;2022-09-12T07:29:01;97582.47;;;21.87
24201;BMP280;2801;50.972;7.856;2022-09-12T07:31:48;97583.25;;;21.88
24201;BMP280;2801;50.972;7.856;2022-09-12T07:34:15;97581.69;;;21.94
24201;BMP280;2801;50.972;7.856;2022-09-12T07:36:43;97576.19;;;22.04
24201;BMP280;2801;50.972;7.856;2022-09-12T07:39:10;97582.03;;;22.06
24201;BMP280;2801;50.972;7.856;2022-09-12T07:41:36;97587.91;;;21.91
24201;BMP280;2801;50.972;7.856;2022-09-12T07:44:03;97589.13;;;21.76
24201;BMP280;2801;50.972;7.856;2022-09-12T07:46:32;97587.91;;;21.70
24201;BMP280;2801;50.972;7.856;2022-09-12T07:49:00;97596.13;;;21.73
24201;BMP280;2801;50.972;7.856;2022-09-12T07:51:29;97594.97;;;21.78
24201;BMP280;2801;50.972;7.856;2022-09-12T07:53:57;97594.56;;;21.90
24201;BMP280;2801;50.972;7.856;2022-09-12T07:56:26;97582.03;;;22.03
24201;BMP280;2801;50.972;7.856;2022-09-12T07:58:58;97587.03;;;22.25
24201;BMP280;2801;50.972;7.856;2022-09-12T08:01:25;97585.78;;;22.44
24201;BMP280;2801;50.972;7.856;2022-09-12T08:03:55;97583.81;;;22.55
24201;BMP280;2801;50.972;7.856;2022-09-12T08:06:25;97583.44;;;22.49
24201;BMP280;2801;50.972;7.856;2022-09-12T08:08:55;97586.94;;;22.46
24201;BMP280;2801;50.972;7.856;2022-09-12T08:11:23;97592.84;;;22.38
24201;BMP280;2801;50.972;7.856;2022-09-12T08:13:52;97593.66;;;22.28
24201;BMP280;2801;50.972;7.856;2022-09-12T08:16:25;97592.91;;;22.17
24201;BMP280;2801;50.972;7.856;2022-09-12T08:18:52;97600.31;;;22.20
24201;BMP280;2801;50.972;7.856;2022-09-12T08:21:26;97600.31;;;22.20
24201;BMP280;2801;50.972;7.856;2022-09-12T08:23:59;97603.41;;;22.22
24201;BMP280;2801;50.972;7.856;2022-09-12T08:26:27;97599.94;;;22.18
24201;BMP280;2801;50.972;7.856;2022-09-12T08:28:54;97599.63;;;21.98
24201;BMP280;2801;50.972;7.856;2022-09-12T08:31:23;97605.09;;;21.84
24201;BMP280;2801;50.972;7.856;2022-09-12T08:33:53;97601.56;;;21.66
24201;BMP280;2801;50.972;7.856;2022-09-12T08:36:25;97605.47;;;21.62
24201;BMP280;2801;50.972;7.856;2022-09-12T08:39:02;97600.41;;;21.74
24201;BMP280;2801;50.972;7.856;2022-09-12T08:41:43;97601.56;;;21.70
24201;BMP280;2801;50.972;7.856;2022-09-12T08:47:32;97601.97;;;21.50
24201;BMP280;2801;50.972;7.856;2022-09-12T08:53:20;97601.56;;;21.66
24201;BMP280;2801;50.972;7.856;2022-09-12T08:55:59;97590.63;;;21.70
24201;BMP280;2801;50.972;7.856;2022-09-12T08:58:28;97588.31;;;21.65
24201;BMP280;2801;50.972;7.856;2022-09-12T09:01:06;97584.84;;;21.57
24201;BMP280;2801;50.972;7.856;2022-09-12T09:04:15;97586.00;;;21.35
24201;BMP280;2801;50.972;7.856;2022-09-12T09:16:06;97581.94;;;22.31
24201;BMP280;2801;50.972;7.856;2022-09-12T09:18:35;97588.50;;;22.54
24201;BMP280;2801;50.972;7.856;2022-09-12T09:21:28;97580.59;;;22.77
24201;BMP280;2801;50.972;7.856;2022-09-12T09:24:04;97580.06;;;22.96
24201;BMP280;2801;50.972;7.856;2022-09-12T09:26:45;97585.03;;;23.15
24201;BMP280;2801;50.972;7.856;2022-09-12T09:29:19;97578.31;;;23.27
24201;BMP280;2801;50.972;7.856;2022-09-12T09:31:50;97577.81;;;23.39
24201;BMP280;2801;50.972;7.856;2022-09-12T09:34:21;97579.72;;;23.45
24201;BMP280;2801;50.972;7.856;2022-09-12T09:37:20;97569.66;;;23.35
24201;BMP280;2801;50.972;7.856;2022-09-12T09:43:12;97564.38;;;23.07
24201;BMP280;2801;50.972;7.856;2022-09-12T09:45:40;97562.34;;;23.15
24201;BMP280;2801;50.972;7.856;2022-09-12T09:48:28;97563.78;;;23.37
24201;BMP280;2801;50.972;7.856;2022-09-12T09:50:59;97565.59;;;23.50
24201;BMP280;2801;50.972;7.856;2022-09-12T09:56:39;97552.44;;;24.46
24201;BMP280;2801;50.972;7.856;2022-09-12T10:01:56;97533.09;;;25.13
24201;BMP280;2801;50.972;7.856;2022-09-12T10:04:38;97528.63;;;25.23
24201;BMP280;2801;50.972;7.856;2022-09-12T10:07:18;97531.72;;;25.25
24201;BMP280;2801;50.972;7.856;2022-09-12T10:12:38;97531.03;;;25.44
24201;BMP280;2801;50.972;7.856;2022-09-12T10:15:25;97517.94;;;25.28
24201;BMP280;2801;50.972;7.856;2022-09-12T10:17:53;97519.09;;;25.54
24201;BMP280;2801;50.972;7.856;2022-09-12T10:20:38;97517.72;;;25.85
24201;BMP280;2801;50.972;7.856;2022-09-12T10:25:58;97517.03;;;24.89
24201;BMP280;2801;50.972;7.856;2022-09-12T10:28:44;97524.41;;;24.65
24201;BMP280;2801;50.972;7.856;2022-09-12T10:31:25;97520.84;;;24.68
24201;BMP280;2801;50.972;7.856;2022-09-12T10:33:57;97519.75;;;24.62
24201;BMP280;2801;50.972;7.856;2022-09-12T10:36:34;97518.41;;;25.00
24201;BMP280;2801;50.972;7.856;2022-09-12T10:39:03;97509.28;;;25.07
24201;BMP280;2801;50.972;7.856;2022-09-12T10:41:39;97517.47;;;24.84
24201;BMP280;2801;50.972;7.856;2022-09-12T10:44:23;97513.59;;;24.54
24201;BMP280;2801;50.972;7.856;2022-09-12T10:46:51;97523.72;;;24.27
24201;BMP280;2801;50.972;7.856;2022-09-12T10:49:24;97513.53;;;24.28
24201;BMP280;2801;50.972;7.856;2022-09-12T10:51:53;97508.31;;;24.07
24201;BMP280;2801;50.972;7.856;2022-09-12T10:54:25;97505.03;;;23.85
24201;BMP280;2801;50.972;7.856;2022-09-12T10:57:45;97495.47;;;24.34
24201;BMP280;2801;50.972;7.856;2022-09-12T11:00:18;97493.44;;;24.68
24201;BMP280;2801;50.972;7.856;2022-09-12T11:03:14;97488.44;;;24.86
24201;BMP280;2801;50.972;7.856;2022-09-12T11:05:57;97497.69;;;24.96
24201;BMP280;2801;50.972;7.856;2022-09-12T11:20:19;97483.13;;;25.02
24201;BMP280;2801;50.972;7.856;2022-09-12T11:26:42;97475.72;;;25.45
24201;BMP280;2801;50.972;7.856;2022-09-12T11:29:38;97474.41;;;25.30
24201;BMP280;2801;50.972;7.856;2022-09-12T11:32:33;97474.47;;;25.27
24201;BMP280;2801;50.972;7.856;2022-09-12T11:37:55;97468.84;;;25.57
24201;BMP280;2801;50.972;7.856;2022-09-12T11:40:41;97465.88;;;25.48
24201;BMP280;2801;50.972;7.856;2022-09-12T11:45:45;97457.91;;;25.34
24201;BMP280;2801;50.972;7.856;2022-09-12T11:51:04;97463.94;;;24.76
24201;BMP280;2801;50.972;7.856;2022-09-12T11:53:39;97459.22;;;24.49
24201;BMP280;2801;50.972;7.856;2022-09-12T11:56:16;97457.84;;;24.38
24201;BMP280;2801;50.972;7.856;2022-09-12T11:58:54;97462.91;;;24.39
24201;BMP280;2801;50.972;7.856;2022-09-12T12:01:31;97455.59;;;24.56
24201;BMP280;2801;50.972;7.856;2022-09-12T12:04:10;97455.56;;;24.59
24201;BMP280;2801;50.972;7.856;2022-09-12T12:06:56;97446.44;;;24.70
24201;BMP280;2801;50.972;7.856;2022-09-12T12:09:27;97436.19;;;24.74
24201;BMP280;2801;50.972;7.856;2022-09-12T12:11:56;97438.63;;;24.68
24201;BMP280;2801;50.972;7.856;2022-09-12T12:14:37;97435.72;;;24.75
24201;BMP280;2801;50.972;7.856;2022-09-12T12:17:15;97435.41;;;24.96
24201;BMP280;2801;50.972;7.856;2022-09-12T12:19:43;97439.94;;;25.29
24201;BMP280;2801;50.972;7.856;2022-09-12T12:22:22;97431.97;;;25.58
24201;BMP280;2801;50.972;7.856;2022-09-12T12:27:49;97435.00;;;25.83
24201;BMP280;2801;50.972;7.856;2022-09-12T12:36:00;97415.78;;;26.18
24201;BMP280;2801;50.972;7.856;2022-09-12T12:38:38;97413.84;;;26.19
24201;BMP280;2801;50.972;7.856;2022-09-12T12:43:47;97416.16;;;26.20
24201;BMP280;2801;50.972;7.856;2022-09-12T12:46:19;97419.34;;;26.19
24201;BMP280;2801;50.972;7.856;2022-09-12T12:48:57;97404.75;;;26.22
24201;BMP280;2801;50.972;7.856;2022-09-12T12:51:34;97406.91;;;26.30
24201;BMP280;2801;50.972;7.856;2022-09-12T12:57:16;97397.72;;;26.37
24201;BMP280;2801;50.972;7.856;2022-09-12T12:59:52;97391.72;;;26.42
24201;BMP280;2801;50.972;7.856;2022-09-12T13:02:27;97393.25;;;26.43
24201;BMP280;2801;50.972;7.856;2022-09-12T13:04:55;97390.44;;;26.46
24201;BMP280;2801;50.972;7.856;2022-09-12T13:07:37;97390.50;;;26.43
24201;BMP280;2801;50.972;7.856;2022-09-12T13:10:07;97387.69;;;26.46
24201;BMP280;2801;50.972;7.856;2022-09-12T13:12:45;97377.69;;;26.36
24201;BMP280;2801;50.972;7.856;2022-09-12T13:18:24;97373.31;;;26.39
24201;BMP280;2801;50.972;7.856;2022-09-12T13:21:07;97372.19;;;26.36
24201;BMP280;2801;50.972;7.856;2022-09-12T13:23:35;97363.09;;;26.39
24201;BMP280;2801;50.972;7.856;2022-09-12T13:26:03;97358.91;;;26.51
24201;BMP280;2801;50.972;7.856;2022-09-12T13:28:30;97348.09;;;26.60
24201;BMP280;2801;50.972;7.856;2022-09-12T13:31:22;97350.41;;;26.45
24201;BMP280;2801;50.972;7.856;2022-09-12T13:33:53;97348.56;;;26.39
24201;BMP280;2801;50.972;7.856;2022-09-12T13:36:48;97355.13;;;26.29
24201;BMP280;2801;50.972;7.856;2022-09-12T13:39:25;97345.41;;;26.24
24201;BMP280;2801;50.972;7.856;2022-09-12T13:45:23;97339.53;;;26.06
24201;BMP280;2801;50.972;7.856;2022-09-12T13:47:59;97341.88;;;26.08
24201;BMP280;2801;50.972;7.856;2022-09-12T13:50:32;97336.03;;;26.06
24201;BMP280;2801;50.972;7.856;2022-09-12T13:53:14;97326.59;;;26.07
24201;BMP280;2801;50.972;7.856;2022-09-12T13:55:47;97319.38;;;26.13
24201;BMP280;2801;50.972;7.856;2022-09-12T13:58:22;97323.94;;;26.19
24201;BMP280;2801;50.972;7.856;2022-09-12T14:06:45;97325.41;;;26.40
24201;BMP280;2801;50.972;7.856;2022-09-12T14:09:41;97331.59;;;26.44
24201;BMP280;2801;50.972;7.856;2022-09-12T14:12:25;97325.41;;;26.40
24201;BMP280;2801;50.972;7.856;2022-09-12T14:14:52;97329.28;;;26.42
24201;BMP280;2801;50.972;7.856;2022-09-12T14:17:30;97328.25;;;26.52
24201;BMP280;2801;50.972;7.856;2022-09-12T14:20:01;97335.19;;;26.57
24201;BMP280;2801;50.972;7.856;2022-09-12T14:22:29;97335.47;;;26.62
24201;BMP280;2801;50.972;7.856;2022-09-12T14:24:58;97324.47;;;26.62
24201;BMP280;2801;50.972;7.856;2022-09-12T14:27:37;97313.91;;;26.77
24201;BMP280;2801;50.972;7.856;2022-09-12T14:35:45;97325.16;;;26.34
24201;BMP280;2801;50.972;7.856;2022-09-12T14:41:05;97314.22;;;26.31
24201;BMP280;2801;50.972;7.856;2022-09-12T14:43:42;97316.28;;;26.27
24201;BMP280;2801;50.972;7.856;2022-09-12T14:46:22;97311.22;;;26.25
24201;BMP280;2801;50.972;7.856;2022-09-12T14:51:34;97312.84;;;26.07
24201;BMP280;2801;50.972;7.856;2022-09-12T14:54:03;97316.88;;;26.02
24201;BMP280;2801;50.972;7.856;2022-09-12T14:56:53;97321.03;;;25.91
24201;BMP280;2801;50.972;7.856;2022-09-12T14:59:34;97310.47;;;25.89
24201;BMP280;2801;50.972;7.856;2022-09-12T15:10:30;97311.34;;;25.67
24201;BMP280;2801;50.972;7.856;2022-09-12T15:15:56;97302.56;;;25.56
24201;BMP280;2801;50.972;7.856;2022-09-12T15:18:26;97305.31;;;25.56
24201;BMP280;2801;50.972;7.856;2022-09-12T15:21:00;97299.84;;;25.56
24201;BMP280;2801;50.972;7.856;2022-09-12T15:23:36;97294.28;;;25.59
24201;BMP280;2801;50.972;7.856;2022-09-12T15:26:08;97297.59;;;25.51
24201;BMP280;2801;50.972;7.856;2022-09-12T15:28:35;97296.25;;;25.39
24201;BMP280;2801;50.972;7.856;2022-09-12T15:31:10;97286.56;;;25.35
24201;BMP280;2801;50.972;7.856;2022-09-12T15:33:37;97296.25;;;25.39
24201;BMP280;2801;50.972;7.856;2022-09-12T15:36:13;97294.53;;;25.29
24201;BMP280;2801;50.972;7.856;2022-09-12T15:38:42;97294.25;;;25.20
24201;BMP280;2801;50.972;7.856;2022-09-12T15:41:22;97285.13;;;25.07
24201;BMP280;2801;50.972;7.856;2022-09-12T15:43:50;97293.16;;;24.98
24201;BMP280;2801;50.972;7.856;2022-09-12T15:46:18;97284.38;;;24.87
24201;BMP280;2801;50.972;7.856;2022-09-12T15:48:45;97283.69;;;24.80
24201;BMP280;2801;50.972;7.856;2022-09-12T15:51:17;97281.03;;;24.76
24201;BMP280;2801;50.972;7.856;2022-09-12T15:53:46;97276.94;;;24.64
24201;BMP280;2801;50.972;7.856;2022-09-12T15:56:17;97285.03;;;24.48
24201;BMP280;2801;50.972;7.856;2022-09-12T15:58:44;97284.84;;;24.36
24201;BMP280;2801;50.972;7.856;2022-09-12T16:01:24;97280.69;;;24.28
24201;BMP280;2801;50.972;7.856;2022-09-12T16:03:51;97278.88;;;24.18
24201;BMP280;2801;50.972;7.856;2022-09-12T16:06:17;97272.38;;;24.08
24201;BMP280;2801;50.972;7.856;2022-09-12T16:08:44;97276.84;;;23.99
24201;BMP280;2801;50.972;7.856;2022-09-12T16:11:21;97286.00;;;23.85
24201;BMP280;2801;50.972;7.856;2022-09-12T16:13:51;97277.88;;;23.78
24201;BMP280;2801;50.972;7.856;2022-09-12T16:16:18;97266.59;;;23.76
24201;BMP280;2801;50.972;7.856;2022-09-12T16:18:44;97276.81;;;23.72
24201;BMP280;2801;50.972;7.856;2022-09-12T16:21:11;97266.06;;;23.58
24201;BMP280;2801;50.972;7.856;2022-09-12T16:23:43;97274.78;;;23.50
24201;BMP280;2801;50.972;7.856;2022-09-12T16:26:10;97270.59;;;23.42
24201;BMP280;2801;50.972;7.856;2022-09-12T16:28:37;97275.34;;;23.38
24201;BMP280;2801;50.972;7.856;2022-09-12T16:31:06;97262.13;;;23.33
24201;BMP280;2801;50.972;7.856;2022-09-12T16:33:34;97259.81;;;23.28
24201;BMP280;2801;50.972;7.856;2022-09-12T16:36:07;97255.22;;;23.21
24201;BMP280;2801;50.972;7.856;2022-09-12T16:38:40;97260.09;;;23.03
24201;BMP280;2801;50.972;7.856;2022-09-12T16:41:08;97260.63;;;22.95
24201;BMP280;2801;50.972;7.856;2022-09-12T16:43:35;97262.63;;;22.87
24201;BMP280;2801;50.972;7.856;2022-09-12T16:46:12;97262.44;;;22.71
24201;BMP280;2801;50.972;7.856;2022-09-12T16:48:45;97260.97;;;22.60
24201;BMP280;2801;50.972;7.856;2022-09-12T16:51:21;97263.81;;;22.53
24201;BMP280;2801;50.972;7.856;2022-09-12T16:53:50;97253.31;;;22.48
24201;BMP280;2801;50.972;7.856;2022-09-12T16:56:17;97251.84;;;22.36
24201;BMP280;2801;50.972;7.856;2022-09-12T16:58:44;97251.16;;;22.25
24201;BMP280;2801;50.972;7.856;2022-09-12T17:01:17;97251.22;;;22.15
24201;BMP280;2801;50.972;7.856;2022-09-12T17:03:45;97261.78;;;22.09
24201;BMP280;2801;50.972;7.856;2022-09-12T17:06:17;97253.31;;;22.00
24201;BMP280;2801;50.972;7.856;2022-09-12T17:08:53;97257.28;;;21.92
24201;BMP280;2801;50.972;7.856;2022-09-12T17:11:26;97249.53;;;21.84